sensor_id;sensor_type;location;lat;lon;timestamp;temperature;humidity
15877;DHT22;8037;51.666;7.834;2022-09-09T00:03:45;18.00;99.90
15877;DHT22;8037;51.666;7.834;2022-09-09T00:11:36;18.00;99.90
15877;DHT22;8037;51.666;7.834;2022-09-09T00:14:13;18.00;99.90
15877;DHT22;8037;51.666;7.834;2022-09-09T00:16:42;17.90;99.90
15877;DHT22;8037;51.666;7.834;2022-09-09T00:19:15;17.90;99.90
15877;DHT22;8037;51.666;7.834;2022-09-09T00:21:48;17.90;99.90
15877;DHT22;8037;51.666;7.834;2022-09-09T00:26:48;17.90;99.90
15877;DHT22;8037;51.666;7.834;2022-09-09T00:32:13;17.90;99.90
15877;DHT22;8037;51.666;7.834;2022-09-09T00:34:54;17.90;99.90
15877;DHT22;8037;51.666;7.834;2022-09-09T00:37:22;17.90;99.90
15877;DHT22;8037;51.666;7.834;2022-09-09T00:39:51;17.80;99.90
15877;DHT22;8037;51.666;7.834;2022-09-09T00:42:25;17.80;99.90
15877;DHT22;8037;51.666;7.834;2022-09-09T00:47:53;17.60;99.90
15877;DHT22;8037;51.666;7.834;2022-09-09T00:56:12;17.90;99.90
15877;DHT22;8037;51.666;7.834;2022-09-09T00:58:38;18.00;99.90
15877;DHT22;8037;51.666;7.834;2022-09-09T01:01:14;18.00;99.90
15877;DHT22;8037;51.666;7.834;2022-09-09T01:03:47;18.00;99.90
15877;DHT22;8037;51.666;7.834;2022-09-09T01:06:22;18.00;99.90
15877;DHT22;8037;51.666;7.834;2022-09-09T01:09:10;18.00;99.90
15877;DHT22;8037;51.666;7.834;2022-09-09T01:11:58;18.00;99.90
15877;DHT22;8037;51.666;7.834;2022-09-09T01:17:19;17.80;99.90
15877;DHT22;8037;51.666;7.834;2022-09-09T01:25:20;17.80;99.90
15877;DHT22;8037;51.666;7.834;2022-09-09T01:27:51;17.90;99.90
15877;DHT22;8037;51.666;7.834;2022-09-09T01:30:19;17.90;99.90
15877;DHT22;8037;51.666;7.834;2022-09-09T01:32:55;16.50;99.90
15877;DHT22;8037;51.666;7.834;2022-09-09T01:38:14;17.80;99.90
15877;DHT22;8037;51.666;7.834;2022-09-09T01:45:33;17.80;99.90
15877;DHT22;8037;51.666;7.834;2022-09-09T01:50:25;17.80;99.90
15877;DHT22;8037;51.666;7.834;2022-09-09T01:52:56;17.80;99.90
15877;DHT22;8037;51.666;7.834;2022-09-09T01:55:40;17.80;99.90
15877;DHT22;8037;51.666;7.834;2022-09-09T02:01:02;17.80;99.90
15877;DHT22;8037;51.666;7.834;2022-09-09T02:03:32;17.80;99.90
15877;DHT22;8037;51.666;7.834;2022-09-09T02:06:38;17.80;99.90
15877;DHT22;8037;51.666;7.834;2022-09-09T02:09:05;17.80;99.90
15877;DHT22;8037;51.666;7.834;2022-09-09T02:11:33;17.80;99.90
15877;DHT22;8037;51.666;7.834;2022-09-09T02:14:03;17.70;99.90
15877;DHT22;8037;51.666;7.834;2022-09-09T02:16:49;17.70;99.90
15877;DHT22;8037;51.666;7.834;2022-09-09T02:19:20;17.60;99.90
15877;DHT22;8037;51.666;7.834;2022-09-09T02:21:52;17.70;99.90
15877;DHT22;8037;51.666;7.834;2022-09-09T02:24:19;17.70;99.90
15877;DHT22;8037;51.666;7.834;2022-09-09T02:26:47;17.60;99.90
15877;DHT22;8037;51.666;7.834;2022-09-09T02:29:18;17.60;99.90
15877;DHT22;8037;51.666;7.834;2022-09-09T02:31:46;17.60;99.90
15877;DHT22;8037;51.666;7.834;2022-09-09T02:34:14;17.60;99.90
15877;DHT22;8037;51.666;7.834;2022-09-09T02:36:43;17.60;99.90
15877;DHT22;8037;51.666;7.834;2022-09-09T02:39:11;17.60;99.90
15877;DHT22;8037;51.666;7.834;2022-09-09T02:41:40;17.50;99.90
15877;DHT22;8037;51.666;7.834;2022-09-09T02:44:14;17.50;99.90
15877;DHT22;8037;51.666;7.834;2022-09-09T02:47:07;17.60;99.90
15877;DHT22;8037;51.666;7.834;2022-09-09T02:50:01;17.60;99.90
15877;DHT22;8037;51.666;7.834;2022-09-09T02:55:35;17.60;99.90
15877;DHT22;8037;51.666;7.834;2022-09-09T03:00:27;17.70;99.90
15877;DHT22;8037;51.666;7.834;2022-09-09T03:05:22;17.70;99.90
15877;DHT22;8037;51.666;7.834;2022-09-09T03:07:49;17.70;99.90
15877;DHT22;8037;51.666;7.834;2022-09-09T03:12:42;17.70;99.90
15877;DHT22;8037;51.666;7.834;2022-09-09T03:15:08;18.20;99.90
15877;DHT22;8037;51.666;7.834;2022-09-09T03:17:35;17.80;99.90
15877;DHT22;8037;51.666;7.834;2022-09-09T03:20:04;17.80;99.90
15877;DHT22;8037;51.666;7.834;2022-09-09T03:34:43;17.90;99.90
15877;DHT22;8037;51.666;7.834;2022-09-09T04:18:40;17.80;99.90
15877;DHT22;8037;51.666;7.834;2022-09-09T04:21:05;17.80;99.90
15877;DHT22;8037;51.666;7.834;2022-09-09T04:23:32;17.80;99.90
15877;DHT22;8037;51.666;7.834;2022-09-09T04:26:00;17.80;99.90
15877;DHT22;8037;51.666;7.834;2022-09-09T04:28:28;17.80;99.90
15877;DHT22;8037;51.666;7.834;2022-09-09T04:30:54;17.80;99.90
15877;DHT22;8037;51.666;7.834;2022-09-09T04:35:49;17.80;99.90
15877;DHT22;8037;51.666;7.834;2022-09-09T04:38:16;17.80;99.90
15877;DHT22;8037;51.666;7.834;2022-09-09T04:40:43;17.80;99.90
15877;DHT22;8037;51.666;7.834;2022-09-09T04:43:09;17.80;99.90
15877;DHT22;8037;51.666;7.834;2022-09-09T04:50:28;17.80;99.90
15877;DHT22;8037;51.666;7.834;2022-09-09T05:00:12;17.90;99.90
15877;DHT22;8037;51.666;7.834;2022-09-09T05:05:05;17.90;99.90
15877;DHT22;8037;51.666;7.834;2022-09-09T05:09:57;17.90;99.90
15877;DHT22;8037;51.666;7.834;2022-09-09T05:12:23;17.90;99.90
15877;DHT22;8037;51.666;7.834;2022-09-09T05:14:52;17.80;99.90
15877;DHT22;8037;51.666;7.834;2022-09-09T05:22:10;18.00;99.90
15877;DHT22;8037;51.666;7.834;2022-09-09T05:29:30;18.10;99.90
15877;DHT22;8037;51.666;7.834;2022-09-09T05:39:17;18.10;99.90
15877;DHT22;8037;51.666;7.834;2022-09-09T05:49:02;18.10;99.90
15877;DHT22;8037;51.666;7.834;2022-09-09T05:51:28;18.10;99.90
15877;DHT22;8037;51.666;7.834;2022-09-09T05:53:55;18.10;99.90
15877;DHT22;8037;51.666;7.834;2022-09-09T05:56:25;18.10;99.90
15877;DHT22;8037;51.666;7.834;2022-09-09T06:01:21;18.10;99.90
15877;DHT22;8037;51.666;7.834;2022-09-09T06:03:48;18.20;99.90
15877;DHT22;8037;51.666;7.834;2022-09-09T06:06:19;18.10;99.90
15877;DHT22;8037;51.666;7.834;2022-09-09T06:08:50;18.20;99.90
15877;DHT22;8037;51.666;7.834;2022-09-09T06:11:19;19.90;99.90
15877;DHT22;8037;51.666;7.834;2022-09-09T06:16:16;18.20;99.90
15877;DHT22;8037;51.666;7.834;2022-09-09T06:18:42;18.20;99.90
15877;DHT22;8037;51.666;7.834;2022-09-09T06:21:14;18.30;99.90
15877;DHT22;8037;51.666;7.834;2022-09-09T06:26:11;18.30;99.90
15877;DHT22;8037;51.666;7.834;2022-09-09T06:28:37;18.30;99.90
15877;DHT22;8037;51.666;7.834;2022-09-09T06:31:07;18.30;99.90
15877;DHT22;8037;51.666;7.834;2022-09-09T06:33:35;18.20;99.90
15877;DHT22;8037;51.666;7.834;2022-09-09T06:36:03;18.30;99.90
15877;DHT22;8037;51.666;7.834;2022-09-09T06:38:29;18.30;99.90
15877;DHT22;8037;51.666;7.834;2022-09-09T06:40:56;18.30;99.90
15877;DHT22;8037;51.666;7.834;2022-09-09T06:45:57;18.30;99.90
15877;DHT22;8037;51.666;7.834;2022-09-09T06:48:23;18.40;99.90
15877;DHT22;8037;51.666;7.834;2022-09-09T06:53:18;18.50;99.90
15877;DHT22;8037;51.666;7.834;2022-09-09T07:10:24;19.00;99.90
15877;DHT22;8037;51.666;7.834;2022-09-09T07:12:53;19.00;99.90
15877;DHT22;8037;51.666;7.834;2022-09-09T07:20:11;19.10;99.90
15877;DHT22;8037;51.666;7.834;2022-09-09T07:22:38;19.20;99.90
15877;DHT22;8037;51.666;7.834;2022-09-09T07:25:04;19.20;99.90
15877;DHT22;8037;51.666;7.834;2022-09-09T07:27:30;19.10;99.90
15877;DHT22;8037;51.666;7.834;2022-09-09T07:34:51;19.20;99.90
15877;DHT22;8037;51.666;7.834;2022-09-09T07:42:09;19.30;99.90
15877;DHT22;8037;51.666;7.834;2022-09-09T07:47:05;19.50;99.90
15877;DHT22;8037;51.666;7.834;2022-09-09T07:56:52;19.60;99.90
15877;DHT22;8037;51.666;7.834;2022-09-09T08:01:46;19.50;99.90
15877;DHT22;8037;51.666;7.834;2022-09-09T08:04:17;19.40;99.90
15877;DHT22;8037;51.666;7.834;2022-09-09T08:06:52;19.40;99.90
15877;DHT22;8037;51.666;7.834;2022-09-09T08:09:19;19.30;99.90
15877;DHT22;8037;51.666;7.834;2022-09-09T08:16:43;19.60;99.90
15877;DHT22;8037;51.666;7.834;2022-09-09T08:21:37;19.90;99.90
15877;DHT22;8037;51.666;7.834;2022-09-09T08:26:42;20.00;99.90
15877;DHT22;8037;51.666;7.834;2022-09-09T08:29:10;20.10;99.90
15877;DHT22;8037;51.666;7.834;2022-09-09T08:31:41;20.20;99.90
15877;DHT22;8037;51.666;7.834;2022-09-09T08:34:08;20.20;99.90
15877;DHT22;8037;51.666;7.834;2022-09-09T08:36:37;20.30;99.90
15877;DHT22;8037;51.666;7.834;2022-09-09T08:39:05;20.20;99.90
15877;DHT22;8037;51.666;7.834;2022-09-09T08:44:22;20.10;99.90
15877;DHT22;8037;51.666;7.834;2022-09-09T08:47:01;20.10;99.90
15877;DHT22;8037;51.666;7.834;2022-09-09T08:52:29;20.20;99.90
15877;DHT22;8037;51.666;7.834;2022-09-09T08:55:16;20.30;99.90
15877;DHT22;8037;51.666;7.834;2022-09-09T09:00:11;20.50;99.90
15877;DHT22;8037;51.666;7.834;2022-09-09T09:03:03;20.60;99.90
15877;DHT22;8037;51.666;7.834;2022-09-09T09:05:37;20.50;99.90
15877;DHT22;8037;51.666;7.834;2022-09-09T09:08:31;20.50;99.90
15877;DHT22;8037;51.666;7.834;2022-09-09T09:13:45;20.60;99.90
15877;DHT22;8037;51.666;7.834;2022-09-09T09:18:52;20.70;99.90
15877;DHT22;8037;51.666;7.834;2022-09-09T09:23:56;20.80;99.90
15877;DHT22;8037;51.666;7.834;2022-09-09T09:26:25;20.80;99.90
15877;DHT22;8037;51.666;7.834;2022-09-09T09:28:55;20.90;99.90
15877;DHT22;8037;51.666;7.834;2022-09-09T09:33:52;20.90;99.90
15877;DHT22;8037;51.666;7.834;2022-09-09T09:36:19;20.80;99.90
15877;DHT22;8037;51.666;7.834;2022-09-09T09:39:21;20.90;99.90
15877;DHT22;8037;51.666;7.834;2022-09-09T09:41:47;20.80;99.90
15877;DHT22;8037;51.666;7.834;2022-09-09T09:44:30;20.80;99.90
15877;DHT22;8037;51.666;7.834;2022-09-09T09:47:08;20.80;99.90
15877;DHT22;8037;51.666;7.834;2022-09-09T09:52:03;20.80;99.90
15877;DHT22;8037;51.666;7.834;2022-09-09T09:54:41;20.80;99.90
15877;DHT22;8037;51.666;7.834;2022-09-09T09:57:16;20.80;99.90
15877;DHT22;8037;51.666;7.834;2022-09-09T09:59:43;20.90;99.90
15877;DHT22;8037;51.666;7.834;2022-09-09T10:02:24;20.80;99.90
15877;DHT22;8037;51.666;7.834;2022-09-09T10:05:05;20.90;99.90
15877;DHT22;8037;51.666;7.834;2022-09-09T10:09:58;21.00;99.90
15877;DHT22;8037;51.666;7.834;2022-09-09T10:12:48;21.10;99.90
15877;DHT22;8037;51.666;7.834;2022-09-09T10:18:35;21.30;99.90
15877;DHT22;8037;51.666;7.834;2022-09-09T10:21:24;21.50;99.90
15877;DHT22;8037;51.666;7.834;2022-09-09T10:29:44;21.90;99.90
15877;DHT22;8037;51.666;7.834;2022-09-09T10:40:41;22.00;99.90
15877;DHT22;8037;51.666;7.834;2022-09-09T10:42:42;22.00;99.90
15877;DHT22;8037;51.666;7.834;2022-09-09T10:45:18;22.00;99.90
15877;DHT22;8037;51.666;7.834;2022-09-09T10:50:43;22.00;99.90
15877;DHT22;8037;51.666;7.834;2022-09-09T10:53:51;22.00;99.90
15877;DHT22;8037;51.666;7.834;2022-09-09T10:56:20;21.90;99.90
15877;DHT22;8037;51.666;7.834;2022-09-09T10:58:53;21.90;99.90
15877;DHT22;8037;51.666;7.834;2022-09-09T11:04:08;22.00;99.90
15877;DHT22;8037;51.666;7.834;2022-09-09T11:06:39;22.00;99.90
15877;DHT22;8037;51.666;7.834;2022-09-09T11:09:14;22.10;99.90
15877;DHT22;8037;51.666;7.834;2022-09-09T11:11:46;22.20;99.90
15877;DHT22;8037;51.666;7.834;2022-09-09T11:16:50;22.30;99.90
15877;DHT22;8037;51.666;7.834;2022-09-09T11:21:52;22.40;99.90
15877;DHT22;8037;51.666;7.834;2022-09-09T11:24:28;22.30;99.90
15877;DHT22;8037;51.666;7.834;2022-09-09T11:27:35;22.30;99.90
15877;DHT22;8037;51.666;7.834;2022-09-09T11:36:19;22.40;99.90
15877;DHT22;8037;51.666;7.834;2022-09-09T11:38:50;22.30;99.90
15877;DHT22;8037;51.666;7.834;2022-09-09T11:41:18;22.30;99.90
15877;DHT22;8037;51.666;7.834;2022-09-09T11:43:48;22.40;99.90
15877;DHT22;8037;51.666;7.834;2022-09-09T11:48:45;22.60;99.90
15877;DHT22;8037;51.666;7.834;2022-09-09T11:54:04;22.70;99.90
15877;DHT22;8037;51.666;7.834;2022-09-09T11:59:26;22.70;99.90
15877;DHT22;8037;51.666;7.834;2022-09-09T12:02:02;22.60;99.90
15877;DHT22;8037;51.666;7.834;2022-09-09T12:04:39;22.80;99.90
15877;DHT22;8037;51.666;7.834;2022-09-09T12:10:58;22.60;99.90
15877;DHT22;8037;51.666;7.834;2022-09-09T12:17:51;22.50;99.90
15877;DHT22;8037;51.666;7.834;2022-09-09T12:20:30;22.40;99.90
15877;DHT22;8037;51.666;7.834;2022-09-09T12:30:29;22.40;99.90
15877;DHT22;8037;51.666;7.834;2022-09-09T12:33:08;22.40;99.90
15877;DHT22;8037;51.666;7.834;2022-09-09T12:35:35;22.40;99.90
15877;DHT22;8037;51.666;7.834;2022-09-09T12:38:05;22.50;99.90
15877;DHT22;8037;51.666;7.834;2022-09-09T12:40:33;22.50;99.90
15877;DHT22;8037;51.666;7.834;2022-09-09T12:43:01;22.50;99.90
15877;DHT22;8037;51.666;7.834;2022-09-09T12:45:30;22.30;99.90
15877;DHT22;8037;51.666;7.834;2022-09-09T12:48:00;22.30;99.90
15877;DHT22;8037;51.666;7.834;2022-09-09T12:50:32;22.40;99.90
15877;DHT22;8037;51.666;7.834;2022-09-09T12:53:02;22.50;99.90
15877;DHT22;8037;51.666;7.834;2022-09-09T12:55:31;22.60;99.90
15877;DHT22;8037;51.666;7.834;2022-09-09T13:02:55;22.50;99.90
15877;DHT22;8037;51.666;7.834;2022-09-09T13:05:38;22.50;99.90
15877;DHT22;8037;51.666;7.834;2022-09-09T13:08:10;22.40;99.90
15877;DHT22;8037;51.666;7.834;2022-09-09T13:13:17;22.30;99.90
15877;DHT22;8037;51.666;7.834;2022-09-09T13:15:54;22.30;99.90
15877;DHT22;8037;51.666;7.834;2022-09-09T13:18:23;22.30;99.90
15877;DHT22;8037;51.666;7.834;2022-09-09T13:23:18;22.30;99.90
15877;DHT22;8037;51.666;7.834;2022-09-09T13:26:02;22.20;99.90
15877;DHT22;8037;51.666;7.834;2022-09-09T13:28:30;22.10;99.90
15877;DHT22;8037;51.666;7.834;2022-09-09T13:33:36;21.80;99.90
15877;DHT22;8037;51.666;7.834;2022-09-09T13:36:09;21.60;99.90
15877;DHT22;8037;51.666;7.834;2022-09-09T13:38:38;21.50;99.90
15877;DHT22;8037;51.666;7.834;2022-09-09T13:41:07;21.50;99.90
15877;DHT22;8037;51.666;7.834;2022-09-09T13:43:42;21.50;99.90
15877;DHT22;8037;51.666;7.834;2022-09-09T13:46:31;21.50;99.90
15877;DHT22;8037;51.666;7.834;2022-09-09T13:49:23;21.60;99.90
15877;DHT22;8037;51.666;7.834;2022-09-09T13:51:50;21.70;99.90
15877;DHT22;8037;51.666;7.834;2022-09-09T13:54:19;21.80;99.90
15877;DHT22;8037;51.666;7.834;2022-09-09T13:56:46;21.80;99.90
15877;DHT22;8037;51.666;7.834;2022-09-09T13:59:17;21.80;99.90
15877;DHT22;8037;51.666;7.834;2022-09-09T14:01:44;21.90;99.90
15877;DHT22;8037;51.666;7.834;2022-09-09T14:04:09;21.90;99.90
15877;DHT22;8037;51.666;7.834;2022-09-09T14:06:36;22.00;99.90
15877;DHT22;8037;51.666;7.834;2022-09-09T14:28:33;22.00;99.90
15877;DHT22;8037;51.666;7.834;2022-09-09T14:31:03;22.00;99.90
15877;DHT22;8037;51.666;7.834;2022-09-09T14:33:30;22.00;99.90
15877;DHT22;8037;51.666;7.834;2022-09-09T14:35:59;22.00;99.90
15877;DHT22;8037;51.666;7.834;2022-09-09T14:38:29;22.00;99.90
15877;DHT22;8037;51.666;7.834;2022-09-09T14:40:55;22.10;99.90
15877;DHT22;8037;51.666;7.834;2022-09-09T14:45:51;22.10;99.90
15877;DHT22;8037;51.666;7.834;2022-09-09T14:48:17;22.10;99.90
15877;DHT22;8037;51.666;7.834;2022-09-09T14:50:43;22.10;99.90
15877;DHT22;8037;51.666;7.834;2022-09-09T14:53:09;22.10;99.90
15877;DHT22;8037;51.666;7.834;2022-09-09T14:55:36;22.00;99.90
15877;DHT22;8037;51.666;7.834;2022-09-09T14:58:02;22.00;99.90
15877;DHT22;8037;51.666;7.834;2022-09-09T15:07:46;21.90;99.90
15877;DHT22;8037;51.666;7.834;2022-09-09T15:15:05;21.70;99.90
15877;DHT22;8037;51.666;7.834;2022-09-09T15:22:23;21.70;99.90
15877;DHT22;8037;51.666;7.834;2022-09-09T15:24:49;21.70;99.90
15877;DHT22;8037;51.666;7.834;2022-09-09T15:27:15;21.70;99.90
15877;DHT22;8037;51.666;7.834;2022-09-09T15:32:07;21.80;99.90
15877;DHT22;8037;51.666;7.834;2022-09-09T15:46:52;21.90;99.90
15877;DHT22;8037;51.666;7.834;2022-09-09T15:49:25;21.80;99.90
15877;DHT22;8037;51.666;7.834;2022-09-09T15:51:56;21.80;99.90
15877;DHT22;8037;51.666;7.834;2022-09-09T15:54:24;21.70;99.90
15877;DHT22;8037;51.666;7.834;2022-09-09T15:56:55;21.70;99.90
15877;DHT22;8037;51.666;7.834;2022-09-09T15:59:26;21.60;99.90
15877;DHT22;8037;51.666;7.834;2022-09-09T16:01:53;21.50;99.90
15877;DHT22;8037;51.666;7.834;2022-09-09T16:06:53;21.30;99.90
15877;DHT22;8037;51.666;7.834;2022-09-09T16:09:19;21.20;99.90
15877;DHT22;8037;51.666;7.834;2022-09-09T16:14:13;21.10;99.90
15877;DHT22;8037;51.666;7.834;2022-09-09T16:19:11;21.00;99.90
15877;DHT22;8037;51.666;7.834;2022-09-09T16:21:48;24.30;99.90
15877;DHT22;8037;51.666;7.834;2022-09-09T16:24:16;20.60;99.90
15877;DHT22;8037;51.666;7.834;2022-09-09T16:26:45;20.40;99.90
15877;DHT22;8037;51.666;7.834;2022-09-09T16:29:12;20.30;99.90
15877;DHT22;8037;51.666;7.834;2022-09-09T16:36:33;19.80;99.90
15877;DHT22;8037;51.666;7.834;2022-09-09T16:39:02;19.80;99.90
15877;DHT22;8037;51.666;7.834;2022-09-09T16:41:29;19.80;99.90
15877;DHT22;8037;51.666;7.834;2022-09-09T16:43:59;19.70;99.90
15877;DHT22;8037;51.666;7.834;2022-09-09T16:46:26;19.60;99.90
15877;DHT22;8037;51.666;7.834;2022-09-09T16:48:53;19.60;99.90
15877;DHT22;8037;51.666;7.834;2022-09-09T16:51:26;19.50;99.90
15877;DHT22;8037;51.666;7.834;2022-09-09T16:53:53;19.30;99.90
15877;DHT22;8037;51.666;7.834;2022-09-09T16:56:22;19.30;99.90
15877;DHT22;8037;51.666;7.834;2022-09-09T16:59:10;19.30;99.90
15877;DHT22;8037;51.666;7.834;2022-09-09T17:01:37;19.30;99.90
15877;DHT22;8037;51.666;7.834;2022-09-09T17:04:05;19.30;99.90
15877;DHT22;8037;51.666;7.834;2022-09-09T17:06:32;19.40;99.90
15877;DHT22;8037;51.666;7.834;2022-09-09T17:09:02;19.40;99.90
15877;DHT22;8037;51.666;7.834;2022-09-09T17:11:29;19.40;99.90
15877;DHT22;8037;51.666;7.834;2022-09-09T17:13:55;19.50;99.90
15877;DHT22;8037;51.666;7.834;2022-09-09T17:16:24;19.60;99.90
15877;DHT22;8037;51.666;7.834;2022-09-09T17:18:50;19.60;99.90
15877;DHT22;8037;51.666;7.834;2022-09-09T17:21:18;19.60;99.90
15877;DHT22;8037;51.666;7.834;2022-09-09T17:23:45;19.60;99.90
15877;DHT22;8037;51.666;7.834;2022-09-09T17:26:13;19.50;99.90
15877;DHT22;8037;51.666;7.834;2022-09-09T17:28:40;19.50;99.90
15877;DHT22;8037;51.666;7.834;2022-09-09T17:31:07;19.50;99.90
15877;DHT22;8037;51.666;7.834;2022-09-09T17:33:35;19.40;99.90
15877;DHT22;8037;51.666;7.834;2022-09-09T17:36:12;19.40;99.90
15877;DHT22;8037;51.666;7.834;2022-09-09T17:38:39;19.40;99.90
15877;DHT22;8037;51.666;7.834;2022-09-09T17:41:14;19.30;99.90
15877;DHT22;8037;51.666;7.834;2022-09-09T17:43:40;19.20;99.90
15877;DHT22;8037;51.666;7.834;2022-09-09T17:46:15;19.30;99.90
15877;DHT22;8037;51.666;7.834;2022-09-09T17:48:42;19.30;99.90
15877;DHT22;8037;51.666;7.834;2022-09-09T17:51:12;19.30;99.90
15877;DHT22;8037;51.666;7.834;2022-09-09T17:53:40;19.40;99.90
15877;DHT22;8037;51.666;7.834;2022-09-09T17:56:08;19.40;99.90
15877;DHT22;8037;51.666;7.834;2022-09-09T17:58:34;19.40;99.90
15877;DHT22;8037;51.666;7.834;2022-09-09T18:01:13;19.30;99.90
15877;DHT22;8037;51.666;7.834;2022-09-09T18:03:40;19.40;99.90
15877;DHT22;8037;51.666;7.834;2022-09-09T18:06:10;19.50;99.90
15877;DHT22;8037;51.666;7.834;2022-09-09T18:08:39;17.30;99.90
15877;DHT22;8037;51.666;7.834;2022-09-09T18:11:05;19.40;99.90
15877;DHT22;8037;51.666;7.834;2022-09-09T18:15:58;19.20;99.90
15877;DHT22;8037;51.666;7.834;2022-09-09T18:21:05;19.10;99.90
15877;DHT22;8037;51.666;7.834;2022-09-09T18:23:40;19.10;99.90
15877;DHT22;8037;51.666;7.834;2022-09-09T18:26:09;19.00;99.90
15877;DHT22;8037;51.666;7.834;2022-09-09T18:28:39;19.00;99.90
15877;DHT22;8037;51.666;7.834;2022-09-09T18:31:09;18.90;99.90
15877;DHT22;8037;51.666;7.834;2022-09-09T18:33:37;19.00;99.90
15877;DHT22;8037;51.666;7.834;2022-09-09T18:36:14;18.90;99.90
15877;DHT22;8037;51.666;7.834;2022-09-09T18:38:41;18.90;99.90
15877;DHT22;8037;51.666;7.834;2022-09-09T18:51:07;18.90;99.90
15877;DHT22;8037;51.666;7.834;2022-09-09T18:56:01;19.00;99.90
15877;DHT22;8037;51.666;7.834;2022-09-09T18:58:28;19.00;99.90
15877;DHT22;8037;51.666;7.834;2022-09-09T19:00:54;19.00;99.90
15877;DHT22;8037;51.666;7.834;2022-09-09T19:03:21;19.00;99.90
15877;DHT22;8037;51.666;7.834;2022-09-09T19:08:13;19.00;99.90
15877;DHT22;8037;51.666;7.834;2022-09-09T19:10:39;19.00;99.90
15877;DHT22;8037;51.666;7.834;2022-09-09T19:15:35;18.90;99.90
15877;DHT22;8037;51.666;7.834;2022-09-09T19:35:05;18.70;99.90
15877;DHT22;8037;51.666;7.834;2022-09-09T19:37:31;18.70;99.90
15877;DHT22;8037;51.666;7.834;2022-09-09T19:47:17;18.70;99.90
15877;DHT22;8037;51.666;7.834;2022-09-09T19:49:44;18.70;99.90
15877;DHT22;8037;51.666;7.834;2022-09-09T19:59:29;18.60;99.90
15877;DHT22;8037;51.666;7.834;2022-09-09T20:09:15;18.60;99.90
15877;DHT22;8037;51.666;7.834;2022-09-09T20:11:43;18.50;99.90
15877;DHT22;8037;51.666;7.834;2022-09-09T20:19:04;18.40;99.90
15877;DHT22;8037;51.666;7.834;2022-09-09T20:21:35;18.30;99.90
15877;DHT22;8037;51.666;7.834;2022-09-09T20:24:05;18.20;99.90
15877;DHT22;8037;51.666;7.834;2022-09-09T20:29:00;18.20;99.90
15877;DHT22;8037;51.666;7.834;2022-09-09T20:31:31;18.20;99.90
15877;DHT22;8037;51.666;7.834;2022-09-09T20:38:59;18.30;99.90
15877;DHT22;8037;51.666;7.834;2022-09-09T20:41:31;18.20;99.90
15877;DHT22;8037;51.666;7.834;2022-09-09T20:44:02;18.20;99.90
15877;DHT22;8037;51.666;7.834;2022-09-09T20:46:35;18.30;99.90
15877;DHT22;8037;51.666;7.834;2022-09-09T20:49:02;18.20;99.90
15877;DHT22;8037;51.666;7.834;2022-09-09T20:51:29;18.10;99.90
15877;DHT22;8037;51.666;7.834;2022-09-09T20:54:09;18.10;99.90
15877;DHT22;8037;51.666;7.834;2022-09-09T20:56:37;18.10;99.90
15877;DHT22;8037;51.666;7.834;2022-09-09T20:59:04;18.10;99.90
15877;DHT22;8037;51.666;7.834;2022-09-09T21:16:10;18.10;99.90
15877;DHT22;8037;51.666;7.834;2022-09-09T21:18:37;18.10;99.90
15877;DHT22;8037;51.666;7.834;2022-09-09T21:21:05;18.10;99.90
15877;DHT22;8037;51.666;7.834;2022-09-09T21:30:51;18.10;99.90
15877;DHT22;8037;51.666;7.834;2022-09-09T21:33:18;18.10;99.90
15877;DHT22;8037;51.666;7.834;2022-09-09T21:35:45;18.10;99.90
15877;DHT22;8037;51.666;7.834;2022-09-09T21:38:18;18.10;99.90
15877;DHT22;8037;51.666;7.834;2022-09-09T21:43:13;18.10;99.90
15877;DHT22;8037;51.666;7.834;2022-09-09T21:45:40;18.10;99.90
15877;DHT22;8037;51.666;7.834;2022-09-09T21:48:07;18.10;99.90
15877;DHT22;8037;51.666;7.834;2022-09-09T21:50:41;18.10;99.90
15877;DHT22;8037;51.666;7.834;2022-09-09T21:53:07;18.10;99.90
15877;DHT22;8037;51.666;7.834;2022-09-09T21:55:35;18.10;99.90
15877;DHT22;8037;51.666;7.834;2022-09-09T22:00:28;18.10;99.90
15877;DHT22;8037;51.666;7.834;2022-09-09T22:15:05;17.70;99.90
15877;DHT22;8037;51.666;7.834;2022-09-09T22:17:33;17.70;99.90
15877;DHT22;8037;51.666;7.834;2022-09-09T22:27:23;17.60;99.90
15877;DHT22;8037;51.666;7.834;2022-09-09T22:29:50;17.60;99.90
15877;DHT22;8037;51.666;7.834;2022-09-09T22:32:19;17.60;99.90
15877;DHT22;8037;51.666;7.834;2022-09-09T22:34:45;19.00;99.90
15877;DHT22;8037;51.666;7.834;2022-09-09T22:44:36;17.50;99.90
15877;DHT22;8037;51.666;7.834;2022-09-09T22:47:03;17.60;99.90
15877;DHT22;8037;51.666;7.834;2022-09-09T22:51:56;17.60;99.90
15877;DHT22;8037;51.666;7.834;2022-09-09T22:54:21;17.60;99.90
15877;DHT22;8037;51.666;7.834;2022-09-09T22:56:49;17.60;99.90
15877;DHT22;8037;51.666;7.834;2022-09-09T22:59:18;17.60;99.90
15877;DHT22;8037;51.666;7.834;2022-09-09T23:01:45;17.60;99.90
15877;DHT22;8037;51.666;7.834;2022-09-09T23:04:15;17.70;99.90
15877;DHT22;8037;51.666;7.834;2022-09-09T23:06:42;17.70;99.90
15877;DHT22;8037;51.666;7.834;2022-09-09T23:09:11;17.70;99.90
15877;DHT22;8037;51.666;7.834;2022-09-09T23:11:37;17.70;99.90
15877;DHT22;8037;51.666;7.834;2022-09-09T23:14:05;17.60;99.90
15877;DHT22;8037;51.666;7.834;2022-09-09T23:16:36;17.70;99.90
15877;DHT22;8037;51.666;7.834;2022-09-09T23:19:05;17.70;99.90
15877;DHT22;8037;51.666;7.834;2022-09-09T23:21:36;17.70;99.90
15877;DHT22;8037;51.666;7.834;2022-09-09T23:24:04;17.70;99.90
15877;DHT22;8037;51.666;7.834;2022-09-09T23:26:30;17.70;99.90
15877;DHT22;8037;51.666;7.834;2022-09-09T23:28:58;17.70;99.90
15877;DHT22;8037;51.666;7.834;2022-09-09T23:31:30;17.70;99.90
15877;DHT22;8037;51.666;7.834;2022-09-09T23:34:00;17.70;99.90
15877;DHT22;8037;51.666;7.834;2022-09-09T23:36:27;17.70;99.90
15877;DHT22;8037;51.666;7.834;2022-09-09T23:38:55;17.70;99.90
15877;DHT22;8037;51.666;7.834;2022-09-09T23:41:22;17.70;99.90
15877;DHT22;8037;51.666;7.834;2022-09-09T23:43:49;17.70;99.90
15877;DHT22;8037;51.666;7.834;2022-09-09T23:46:16;17.70;99.90
15877;DHT22;8037;51.666;7.834;2022-09-09T23:48:45;17.70;99.90
15877;DHT22;8037;51.666;7.834;2022-09-09T23:51:21;17.70;99.90
15877;DHT22;8037;51.666;7.834;2022-09-09T23:53:52;17.70;99.90
15877;DHT22;8037;51.666;7.834;2022-09-09T23:56:24;17.70;99.90
15877;DHT22;8037;51.666;7.834;2022-09-09T23:58:51;17.60;99.90
